Ana Sayfa
METAR-TAF:

METAR-TAF

Havaalanları :

North Central State Airport

Pawtucket, Rhode Island, Amerika Birleşik Devletleri

Enlem: 41-55N, Boylam: 071-30W, yükseklik: 134 m

Güncel hava durumu gözlemi

Rapor saat 06:10 UTC de 16 dakika önce yapıldı.
Rüzgar kuzeydan 3 kt
Sıcaklık 19°C
Nem 100%
Basınç 1014 hPa
Görüş mesafesi: 16.1 km
500 ft yükseklikte çok bulutlu

METAR: KSFZ 260610Z AUTO 35003KT 10SM OVC005 19/19 A2994 RMK AO2 CIG 003V006

Saat: 02:26 (06:26 UTC)


TAF: eksik

4.000'den fazla havaalanı için hava durumu gözlemleri ve tahminleri (METAR ve TAF raporları).

Kullanılabilir istasyonlar harita üzerinde sarı ve kırmızı noktalarla gösterilir.

İstasyonun adını görmek için fareyi noktanın üzerinde gezdirin.

Sonrasında hava gözlem ve tahminlerini görmek için tıklayın.

Haritayı değiştirmek için: yaklaştırmak için siyah artı işaretli yeşil düğmeye ve uzaklaştırmak için de eksi işaretli düğmeye hızla tıklayın; bitişik haritalar için yeşil okları kullanın.


METAR-TAF: